Terminal Aerodrome Forecast
Issued by NWS

Current Version | Previous Version | Text Only | Print | Product List | Glossary On
Versions: 1 2 3 4 5 6 7 8 9 10 11 12 13 14 15 16 17 18 19
000
FTUS42 KMLB 251735
TAFFPR
TAF
KFPR 251735Z 2518/2618 11013KT P6SM VCSH SCT025
      TEMPO 2518/2520 -SHRA BKN020
     FM260100 09010KT P6SM VCSH SCT020
     FM261300 11012KT P6SM VCSH SCT020=

USA.gov is the U.S. government's official web portal to all federal, state and local government web resources and services.